Time;durP1;ratioP1;P1;durP2;ratioP2;P2;SDS_P1;SDS_P2;PMS_P1;PMS_P2;Temp;Humidity;BMP_temperature;BMP_pressure;BME280_temperature;BME280_humidity;BME280_pressure;Samples;Min_cycle;Max_cycle;Signal;HPM_P1;HPM_P2
2022/11/09 00:01:18;;;;;;;;;;;;;;;9.56;100.00;98801.69;4359772;32;20244;-74
2022/11/09 00:03:45;;;;;;;;;;;;;;;9.53;100.00;98799.47;4358559;32;20020;-76
2022/11/09 00:06:11;;;;;;;;;;;;;;;9.44;100.00;98805.28;4360620;32;19959;-75
2022/11/09 00:08:38;;;;;;;;;;;;;;;9.47;100.00;98797.78;4358603;32;19962;-76
2022/11/09 00:11:05;;;;;;;;;;;;;;;9.44;100.00;98799.06;4362454;32;19992;-76
2022/11/09 00:13:34;;;;;;;;;;;;;;;9.51;100.00;98804.28;4360799;32;19949;-76
2022/11/09 00:16:01;;;;;;;;;;;;;;;9.46;100.00;98802.31;4358183;32;19955;-75
2022/11/09 00:18:27;;;;;;;;;;;;;;;9.49;100.00;98811.78;4359248;32;19981;-75
2022/11/09 00:20:53;;;;;;;;;;;;;;;9.39;100.00;98807.88;4362647;32;19994;-76
2022/11/09 00:23:20;;;;;;;;;;;;;;;9.48;100.00;98800.22;4358530;32;19985;-75
2022/11/09 00:25:46;;;;;;;;;;;;;;;9.56;100.00;98807.06;4359357;32;19962;-76
2022/11/09 00:28:13;;;;;;;;;;;;;;;9.59;100.00;98801.19;4363671;32;20001;-77
2022/11/09 00:30:39;;;;;;;;;;;;;;;9.56;100.00;98801.69;4361645;32;20005;-77
2022/11/09 00:33:07;;;;;;;;;;;;;;;9.57;100.00;98803.28;4362629;32;19939;-77
2022/11/09 00:35:36;;;;;;;;;;;;;;;9.67;100.00;98800.75;4359102;32;19939;-76
2022/11/09 00:38:03;;;;;;;;;;;;;;;9.52;100.00;98800.53;4370267;32;19958;-76
2022/11/09 00:40:31;;;;;;;;;;;;;;;9.49;100.00;98801.03;4372641;32;19938;-76
2022/11/09 00:42:57;;;;;;;;;;;;;;;9.42;100.00;98791.25;4354676;32;19947;-78
2022/11/09 00:45:23;;;;;;;;;;;;;;;9.26;100.00;98802.88;4338185;33;19989;-76
2022/11/09 00:47:49;;;;;;;;;;;;;;;9.70;100.00;98808.31;4339401;33;19939;-76
2022/11/09 00:50:15;;;;;;;;;;;;;;;9.54;100.00;98793.03;4340834;33;19936;-76
2022/11/09 00:52:42;;;;;;;;;;;;;;;9.51;100.00;98788.16;4309318;33;19936;-76
2022/11/09 00:55:08;;;;;;;;;;;;;;;9.48;100.00;98783.25;4296544;33;19946;-76
2022/11/09 00:57:34;;;;;;;;;;;;;;;9.21;100.00;98789.37;4296339;33;19986;-75
2022/11/09 01:00:01;;;;;;;;;;;;;;;9.41;100.00;98795.03;4294506;33;19941;-77
2022/11/09 01:02:29;;;;;;;;;;;;;;;9.57;100.00;98787.16;4296745;33;19952;-77
2022/11/09 01:04:56;;;;;;;;;;;;;;;9.49;100.00;98784.91;4296661;33;20286;-77
2022/11/09 01:07:22;;;;;;;;;;;;;;;9.53;100.00;98772.59;4294418;33;19946;-77
2022/11/09 01:09:48;;;;;;;;;;;;;;;9.47;100.00;98781.66;4295579;33;19990;-75
2022/11/09 01:12:14;;;;;;;;;;;;;;;9.26;100.00;98776.00;4294444;33;19941;-76
2022/11/09 01:14:41;;;;;;;;;;;;;;;9.50;100.00;98775.78;4295821;33;19969;-77
2022/11/09 01:17:08;;;;;;;;;;;;;;;9.48;100.00;98772.50;4330110;33;20330;-77
2022/11/09 01:19:34;;;;;;;;;;;;;;;9.61;100.00;98777.53;4339162;33;20066;-76
2022/11/09 01:22:00;;;;;;;;;;;;;;;9.44;100.00;98778.41;4307889;33;20056;-75
2022/11/09 01:24:27;;;;;;;;;;;;;;;9.51;100.00;98774.69;4321374;33;19947;-76
2022/11/09 01:26:54;;;;;;;;;;;;;;;9.51;100.00;98775.53;4325646;33;19940;-75
2022/11/09 01:29:20;;;;;;;;;;;;;;;9.60;100.00;98770.53;4325147;33;19940;-75
2022/11/09 01:31:47;;;;;;;;;;;;;;;9.75;100.00;98778.78;4323930;33;19932;-76
2022/11/09 01:34:15;;;;;;;;;;;;;;;9.59;100.00;98775.09;4318142;33;19940;-75
2022/11/09 01:36:41;;;;;;;;;;;;;;;9.74;100.00;98769.09;4320825;33;20076;-76
2022/11/09 01:39:07;;;;;;;;;;;;;;;9.53;100.00;98767.22;4324562;33;19940;-76
2022/11/09 01:41:37;;;;;;;;;;;;;;;9.68;100.00;98762.03;4323838;33;20379;-77
2022/11/09 01:44:11;;;;;;;;;;;;;;;9.74;100.00;98770.97;4308928;33;19954;-77
2022/11/09 01:46:42;;;;;;;;;;;;;;;9.77;100.00;98765.91;4308809;33;19948;-77
2022/11/09 01:49:12;;;;;;;;;;;;;;;9.61;100.00;98766.78;4310220;33;19946;-77
2022/11/09 01:51:47;;;;;;;;;;;;;;;9.71;100.00;98766.91;4310606;33;19937;-76
2022/11/09 01:54:16;;;;;;;;;;;;;;;9.71;100.00;98756.16;4324357;33;19982;-75
2022/11/09 01:56:44;;;;;;;;;;;;;;;9.71;100.00;98756.16;4321459;33;20017;-76
2022/11/09 01:59:14;;;;;;;;;;;;;;;9.88;100.00;98755.28;4335148;33;19973;-76
2022/11/09 02:01:41;;;;;;;;;;;;;;;9.89;100.00;98760.41;4338453;33;19954;-76
2022/11/09 02:04:20;;;;;;;;;;;;;;;9.96;100.00;98752.16;4323628;33;20294;-77
2022/11/09 02:06:48;;;;;;;;;;;;;;;10.00;100.00;98753.25;4324756;33;19994;-76
2022/11/09 02:09:23;;;;;;;;;;;;;;;9.82;100.00;98752.50;4323832;33;19971;-76
2022/11/09 02:11:55;;;;;;;;;;;;;;;9.75;100.00;98746.53;4323707;33;19957;-75
2022/11/09 02:14:24;;;;;;;;;;;;;;;9.97;100.00;98748.38;4311669;33;19948;-75
2022/11/09 02:16:50;;;;;;;;;;;;;;;9.71;100.00;98753.47;4322608;33;19945;-76
2022/11/09 02:19:16;;;;;;;;;;;;;;;10.09;100.00;98757.13;4315319;33;20389;-76
2022/11/09 02:21:43;;;;;;;;;;;;;;;9.86;100.00;98757.38;4283616;33;20356;-76
2022/11/09 02:24:10;;;;;;;;;;;;;;;10.08;100.00;98760.06;4289280;33;19949;-75
2022/11/09 02:26:42;;;;;;;;;;;;;;;9.97;100.00;98764.50;4293230;33;19984;-76
2022/11/09 02:29:12;;;;;;;;;;;;;;;9.97;100.00;98765.34;4288640;33;19974;-77
2022/11/09 02:31:42;;;;;;;;;;;;;;;9.63;100.00;98756.59;4280946;33;19943;-77
2022/11/09 02:34:17;;;;;;;;;;;;;;;9.75;100.00;98754.59;4278958;33;19941;-76
2022/11/09 02:36:43;;;;;;;;;;;;;;;9.68;100.00;98753.97;4260023;33;19947;-77
2022/11/09 02:39:12;;;;;;;;;;;;;;;9.89;100.00;98760.41;4266635;33;19940;-76
2022/11/09 02:41:51;;;;;;;;;;;;;;;9.55;100.00;98767.78;4252001;33;20354;-75
2022/11/09 02:44:18;;;;;;;;;;;;;;;9.71;100.00;98766.91;4250709;33;19957;-77
2022/11/09 02:46:45;;;;;;;;;;;;;;;9.84;100.00;98754.16;4227181;33;19969;-77
2022/11/09 02:49:11;;;;;;;;;;;;;;;9.81;100.00;98756.28;4232582;33;19938;-76
2022/11/09 02:51:37;;;;;;;;;;;;;;;9.78;100.00;98756.78;4236563;33;19957;-75
2022/11/09 02:54:03;;;;;;;;;;;;;;;9.67;100.00;98760.41;4224233;33;19946;-76
2022/11/09 02:56:29;;;;;;;;;;;;;;;9.81;100.00;98758.97;4224219;34;19996;-75
2022/11/09 02:58:56;;;;;;;;;;;;;;;9.69;100.00;98758.28;4227792;33;19941;-76
2022/11/09 03:01:22;;;;;;;;;;;;;;;9.51;100.00;98761.25;4236021;33;19938;-76
2022/11/09 03:03:48;;;;;;;;;;;;;;;9.74;100.00;98761.03;4251349;33;20271;-75
2022/11/09 03:06:15;;;;;;;;;;;;;;;9.61;100.00;98756.03;4249943;33;19937;-76
2022/11/09 03:08:43;;;;;;;;;;;;;;;9.79;100.00;98755.69;4277443;33;19941;-77
2022/11/09 03:11:09;;;;;;;;;;;;;;;9.87;100.00;98759.84;4279800;33;19936;-76
2022/11/09 03:13:36;;;;;;;;;;;;;;;9.55;100.00;98768.59;4279792;33;20282;-77
2022/11/09 03:16:03;;;;;;;;;;;;;;;9.80;100.00;98762.72;4287163;33;20284;-76
2022/11/09 03:18:29;;;;;;;;;;;;;;;9.70;100.00;98770.66;4294887;33;19982;-76
2022/11/09 03:20:59;;;;;;;;;;;;;;;9.62;100.00;98768.41;4293343;33;19936;-75
2022/11/09 03:23:26;;;;;;;;;;;;;;;9.68;100.00;98766.59;4293238;33;19928;-77
2022/11/09 03:25:52;;;;;;;;;;;;;;;9.89;100.00;98756.88;4288111;33;19995;-76
2022/11/09 03:28:18;;;;;;;;;;;;;;;9.89;100.00;98762.28;4279437;33;19947;-77
2022/11/09 03:30:44;;;;;;;;;;;;;;;9.86;100.00;98757.38;4281794;33;20010;-76
2022/11/09 03:33:13;;;;;;;;;;;;;;;9.82;100.00;98757.88;4296602;33;19944;-77
2022/11/09 03:35:39;;;;;;;;;;;;;;;9.60;100.00;98760.59;4306732;33;19993;-76
2022/11/09 03:38:06;;;;;;;;;;;;;;;9.75;100.00;98751.91;4308817;33;19950;-76
2022/11/09 03:40:32;;;;;;;;;;;;;;;9.67;100.00;98743.44;4308512;33;19946;-76
2022/11/09 03:42:59;;;;;;;;;;;;;;;9.72;100.00;98746.22;4308259;33;19951;-76
2022/11/09 03:45:26;;;;;;;;;;;;;;;9.65;100.00;98746.41;4307522;33;19975;-76
2022/11/09 03:47:58;;;;;;;;;;;;;;;9.57;100.00;98754.91;4299152;33;19928;-77
2022/11/09 03:50:28;;;;;;;;;;;;;;;9.67;100.00;98738.06;4305557;33;19976;-74
2022/11/09 03:52:55;;;;;;;;;;;;;;;9.66;100.00;98748.03;4307975;33;19967;-77
2022/11/09 03:55:21;;;;;;;;;;;;;;;9.71;100.00;98742.72;4307323;33;19940;-77
2022/11/09 03:57:48;;;;;;;;;;;;;;;9.61;100.00;98742.59;4311125;33;20592;-77
2022/11/09 04:00:15;;;;;;;;;;;;;;;9.74;100.00;98742.22;4320826;33;19942;-76
2022/11/09 04:02:42;;;;;;;;;;;;;;;9.41;100.00;98708.22;4296908;33;19947;-77
2022/11/09 04:05:08;;;;;;;;;;;;;;;9.90;100.00;98747.78;4309954;33;19970;-77
2022/11/09 04:07:35;;;;;;;;;;;;;;;9.95;100.00;98740.56;4308795;33;19971;-77
2022/11/09 04:10:01;;;;;;;;;;;;;;;9.75;100.00;98741.16;4311364;33;19944;-76
2022/11/09 04:12:27;;;;;;;;;;;;;;;9.99;100.00;98735.50;4305870;33;19939;-75
2022/11/09 04:14:53;;;;;;;;;;;;;;;9.67;100.00;98728.16;4298070;33;20307;-76
2022/11/09 04:17:20;;;;;;;;;;;;;;;9.73;100.00;98732.53;4297414;33;19980;-76
2022/11/09 04:19:46;;;;;;;;;;;;;;;9.88;100.00;98733.78;4305245;33;20015;-76
2022/11/09 04:22:12;;;;;;;;;;;;;;;9.72;100.00;98727.41;4311632;33;19954;-76
2022/11/09 04:24:38;;;;;;;;;;;;;;;9.98;100.00;98728.50;4310514;33;19936;-75
2022/11/09 04:27:05;;;;;;;;;;;;;;;10.06;100.00;98729.91;4311045;33;19942;-76
2022/11/09 04:29:31;;;;;;;;;;;;;;;9.59;100.00;98731.28;4311397;33;19961;-76
2022/11/09 04:31:57;;;;;;;;;;;;;;;9.76;100.00;98732.00;4312060;33;20374;-76
2022/11/09 04:34:23;;;;;;;;;;;;;;;9.67;100.00;98738.91;4311943;33;20060;-76
2022/11/09 04:36:50;;;;;;;;;;;;;;;9.92;100.00;98730.28;4318843;33;19932;-75
2022/11/09 04:39:16;;;;;;;;;;;;;;;10.01;100.00;98733.38;4338895;33;20250;-76
2022/11/09 04:41:42;;;;;;;;;;;;;;;9.80;100.00;98733.13;4342636;33;19935;-75
2022/11/09 04:44:08;;;;;;;;;;;;;;;9.84;100.00;98732.62;4342788;33;20026;-75
2022/11/09 04:46:35;;;;;;;;;;;;;;;9.79;100.00;98731.50;4340511;33;19992;-74
2022/11/09 04:49:01;;;;;;;;;;;;;;;9.80;100.00;98727.75;4341389;33;20338;-75
2022/11/09 04:51:27;;;;;;;;;;;;;;;9.72;100.00;98730.09;4342706;33;19973;-75
2022/11/09 04:53:55;;;;;;;;;;;;;;;9.85;100.00;98724.31;4343156;33;19950;-77
2022/11/09 04:56:21;;;;;;;;;;;;;;;9.86;100.00;98735.87;4342555;33;19940;-75
2022/11/09 04:58:48;;;;;;;;;;;;;;;9.76;100.00;98733.88;4341451;33;19978;-75
2022/11/09 05:01:14;;;;;;;;;;;;;;;10.07;100.00;98729.66;4338080;33;20274;-75
2022/11/09 05:03:41;;;;;;;;;;;;;;;9.85;100.00;98718.94;4342678;33;20335;-76
2022/11/09 05:08:52;;;;;;;;;;;;;;;9.90;100.00;98724.38;4340572;33;20237;-77
2022/11/09 05:11:19;;;;;;;;;;;;;;;9.99;100.00;98719.38;4342175;33;19951;-77
2022/11/09 05:13:45;;;;;;;;;;;;;;;10.14;100.00;98716.00;4342000;33;19931;-77
2022/11/09 05:16:12;;;;;;;;;;;;;;;9.86;100.00;98725.12;4338541;33;19935;-77
2022/11/09 05:18:38;;;;;;;;;;;;;;;9.79;100.00;98726.13;4313006;33;19943;-77
2022/11/09 05:21:04;;;;;;;;;;;;;;;9.72;100.00;98725.53;4320916;33;20022;-77
2022/11/09 05:26:15;;;;;;;;;;;;;;;9.79;100.00;98720.75;4310910;33;20044;-76
2022/11/09 05:28:41;;;;;;;;;;;;;;;9.72;100.00;98722.84;4318492;33;20259;-75
2022/11/09 05:31:08;;;;;;;;;;;;;;;9.56;100.00;98729.09;4314128;33;19940;-76
2022/11/09 05:33:34;;;;;;;;;;;;;;;9.68;100.00;98724.38;4311031;33;20016;-76
2022/11/09 05:36:00;;;;;;;;;;;;;;;9.93;100.00;98731.13;4314719;33;20375;-75
2022/11/09 05:38:26;;;;;;;;;;;;;;;9.80;100.00;98727.75;4310805;33;19932;-76
2022/11/09 05:40:53;;;;;;;;;;;;;;;9.95;100.00;98729.00;4308783;33;19977;-75
2022/11/09 05:43:19;;;;;;;;;;;;;;;9.73;100.00;98731.69;4310629;33;20397;-75
2022/11/09 05:45:46;;;;;;;;;;;;;;;9.70;100.00;98726.81;4309728;33;19936;-76
2022/11/09 05:48:13;;;;;;;;;;;;;;;9.73;100.00;98729.84;4268987;33;19940;-75
2022/11/09 05:50:40;;;;;;;;;;;;;;;9.80;100.00;98733.13;4283064;33;19947;-76
2022/11/09 05:53:09;;;;;;;;;;;;;;;9.95;100.00;98734.38;4284515;33;19940;-77
2022/11/09 05:55:35;;;;;;;;;;;;;;;9.66;100.00;98731.91;4288494;33;19940;-76
2022/11/09 05:58:01;;;;;;;;;;;;;;;9.63;100.00;98729.72;4281593;33;19943;-77
2022/11/09 06:00:29;;;;;;;;;;;;;;;9.69;100.00;98731.41;4280521;33;19974;-77
2022/11/09 06:03:05;;;;;;;;;;;;;;;10.00;100.00;98737.09;4279183;33;19973;-76
2022/11/09 06:05:32;;;;;;;;;;;;;;;10.02;100.00;98732.31;4281269;33;20324;-75
2022/11/09 06:08:09;;;;;;;;;;;;;;;9.75;100.00;98734.97;4265523;33;19939;-76
2022/11/09 06:10:35;;;;;;;;;;;;;;;9.76;100.00;98728.50;4293468;33;19997;-76
2022/11/09 06:13:01;;;;;;;;;;;;;;;9.84;100.00;98727.25;4292519;33;19950;-76
2022/11/09 06:15:28;;;;;;;;;;;;;;;9.78;100.00;98729.06;4294838;33;19953;-76
2022/11/09 06:17:54;;;;;;;;;;;;;;;9.88;100.00;98739.16;4295211;33;19936;-76
2022/11/09 06:20:22;;;;;;;;;;;;;;;9.72;100.00;98735.47;4320728;33;19961;-76
2022/11/09 06:22:55;;;;;;;;;;;;;;;9.85;100.00;98737.75;4294454;33;19932;-75
2022/11/09 06:25:22;;;;;;;;;;;;;;;9.86;100.00;98733.19;4295130;33;19962;-77
2022/11/09 06:27:48;;;;;;;;;;;;;;;9.89;100.00;98730.84;4294304;33;19946;-77
2022/11/09 06:30:14;;;;;;;;;;;;;;;9.94;100.00;98738.13;4294208;33;20020;-76
2022/11/09 06:32:41;;;;;;;;;;;;;;;9.81;100.00;98734.78;4294888;33;19948;-76
2022/11/09 06:35:07;;;;;;;;;;;;;;;10.08;100.00;98739.34;4294046;33;19945;-79
2022/11/09 06:37:33;;;;;;;;;;;;;;;10.18;100.00;98733.28;4294956;33;19936;-81
2022/11/09 06:40:00;;;;;;;;;;;;;;;9.94;100.00;98730.03;4294426;33;19940;-80
2022/11/09 06:42:26;;;;;;;;;;;;;;;10.05;100.00;98729.13;4294149;33;19937;-82
2022/11/09 06:44:52;;;;;;;;;;;;;;;10.32;100.00;98728.28;4293359;33;19967;-82
2022/11/09 06:47:19;;;;;;;;;;;;;;;10.28;100.00;98735.25;4307230;33;19940;-81
2022/11/09 06:49:45;;;;;;;;;;;;;;;10.07;100.00;98737.72;4308057;33;20354;-81
2022/11/09 06:52:11;;;;;;;;;;;;;;;10.33;100.00;98729.94;4310024;33;19936;-78
2022/11/09 06:54:38;;;;;;;;;;;;;;;10.25;100.00;98733.06;4322055;33;19935;-79
2022/11/09 06:57:04;;;;;;;;;;;;;;;10.06;100.00;98736.09;4324557;33;19954;-80
2022/11/09 06:59:30;;;;;;;;;;;;;;;10.36;100.00;98724.84;4331831;33;20345;-81
2022/11/09 07:01:57;;;;;;;;;;;;;;;10.26;100.00;98729.28;4347459;32;19935;-80
2022/11/09 07:04:23;;;;;;;;;;;;;;;9.96;100.00;98725.25;4351574;32;20298;-78
2022/11/09 07:06:49;;;;;;;;;;;;;;;10.21;100.00;98724.69;4338826;32;19951;-80
2022/11/09 07:09:16;;;;;;;;;;;;;;;10.28;100.00;98727.19;4319419;33;20431;-79
2022/11/09 07:11:42;;;;;;;;;;;;;;;10.10;100.00;98728.31;4309401;33;19948;-80
2022/11/09 07:14:15;;;;;;;;;;;;;;;10.38;100.00;98732.66;4308085;33;19999;-80
2022/11/09 07:16:41;;;;;;;;;;;;;;;10.28;100.00;98729.88;4309387;33;19940;-78
2022/11/09 07:19:07;;;;;;;;;;;;;;;10.11;100.00;98732.66;4313653;33;20303;-78
2022/11/09 07:21:33;;;;;;;;;;;;;;;10.20;100.00;98735.72;4338202;33;19947;-78
2022/11/09 07:24:00;;;;;;;;;;;;;;;10.40;100.00;98727.84;4338839;33;19935;-78
2022/11/09 07:26:26;;;;;;;;;;;;;;;10.39;100.00;98722.69;4338674;33;19943;-79
2022/11/09 07:28:52;;;;;;;;;;;;;;;10.36;100.00;98718.66;4328061;33;19943;-78
2022/11/09 07:31:19;;;;;;;;;;;;;;;10.51;100.00;98731.44;4314163;33;20052;-78
2022/11/09 07:33:45;;;;;;;;;;;;;;;10.58;100.00;98725.81;4309701;33;19954;-81
2022/11/09 07:36:11;;;;;;;;;;;;;;;10.88;100.00;98717.16;4294185;33;19932;-80
2022/11/09 07:38:38;;;;;;;;;;;;;;;10.54;100.00;98733.63;4298431;33;19942;-78
2022/11/09 07:41:04;;;;;;;;;;;;;;;10.72;100.00;98729.72;4285123;33;20391;-79
2022/11/09 07:43:32;;;;;;;;;;;;;;;10.69;100.00;98725.66;4269032;33;19936;-79
2022/11/09 07:46:04;;;;;;;;;;;;;;;10.92;100.00;98720.16;4258590;33;19950;-79
2022/11/09 07:48:33;;;;;;;;;;;;;;;10.60;100.00;98723.72;4269705;33;20115;-79
2022/11/09 07:51:01;;;;;;;;;;;;;;;10.72;100.00;98716.25;4270198;33;19945;-80
2022/11/09 07:53:28;;;;;;;;;;;;;;;10.82;100.00;98710.94;4274815;33;20001;-77
2022/11/09 07:55:58;;;;;;;;;;;;;;;11.10;100.00;98719.72;4280649;33;19933;-80
2022/11/09 07:58:24;;;;;;;;;;;;;;;10.81;100.00;98720.09;4283463;33;20008;-79
2022/11/09 08:00:51;;;;;;;;;;;;;;;10.98;100.00;98713.75;4283163;33;19932;-79
2022/11/09 08:03:18;;;;;;;;;;;;;;;11.05;100.00;98714.31;4277621;33;19999;-78
2022/11/09 08:05:45;;;;;;;;;;;;;;;10.93;100.00;98717.22;4281489;33;20003;-77
2022/11/09 08:08:14;;;;;;;;;;;;;;;10.90;100.00;98713.16;4321947;33;19939;-78
2022/11/09 08:10:41;;;;;;;;;;;;;;;11.09;100.00;98710.03;4297844;33;19947;-78
2022/11/09 08:13:12;;;;;;;;;;;;;;;11.40;100.00;98723.66;4285912;33;19946;-77
2022/11/09 08:15:39;;;;;;;;;;;;;;;11.64;100.00;98708.66;4283351;33;19933;-78
2022/11/09 08:18:10;;;;;;;;;;;;;;;11.24;100.00;98717.38;4297756;33;20229;-78
2022/11/09 08:20:36;;;;;;;;;;;;;;;11.40;100.00;98719.06;4297416;33;19943;-77
2022/11/09 08:23:02;;;;;;;;;;;;;;;11.41;100.00;98711.81;4295675;33;20321;-76
2022/11/09 08:25:28;;;;;;;;;;;;;;;11.46;100.00;98719.94;4294625;33;19950;-79
2022/11/09 08:27:55;;;;;;;;;;;;;;;11.35;100.00;98718.25;4289045;33;20006;-79
2022/11/09 08:30:22;;;;;;;;;;;;;;;11.50;100.00;98715.63;4284079;33;20353;-77
2022/11/09 08:32:49;;;;;;;;;;;;;;;11.57;100.00;98713.50;4281663;33;19937;-79
2022/11/09 08:35:16;;;;;;;;;;;;;;;11.42;100.00;98721.50;4287380;33;19976;-77
2022/11/09 08:37:43;;;;;;;;;;;;;;;11.61;100.00;98721.88;4281051;33;19940;-81
2022/11/09 08:40:10;;;;;;;;;;;;;;;11.48;100.00;98733.94;4278161;33;20098;-80
2022/11/09 08:42:36;;;;;;;;;;;;;;;11.51;100.00;98744.22;4285350;33;19968;-80
2022/11/09 08:45:02;;;;;;;;;;;;;;;11.44;100.00;98736.37;4277612;33;19937;-80
2022/11/09 08:47:29;;;;;;;;;;;;;;;11.78;100.00;98735.16;4281900;33;19937;-79
2022/11/09 08:49:55;;;;;;;;;;;;;;;11.40;100.00;98737.16;4286871;33;20004;-80
2022/11/09 08:52:21;;;;;;;;;;;;;;;11.67;100.00;98738.88;4281914;33;19949;-79
2022/11/09 08:54:48;;;;;;;;;;;;;;;11.66;100.00;98734.56;4289509;33;19966;-79
2022/11/09 08:57:16;;;;;;;;;;;;;;;11.51;100.00;98733.44;4298849;33;19979;-77
2022/11/09 08:59:42;;;;;;;;;;;;;;;11.58;100.00;98736.72;4325360;33;19931;-76
2022/11/09 09:02:09;;;;;;;;;;;;;;;11.55;100.00;98739.09;4330013;32;20263;-80
2022/11/09 09:04:35;;;;;;;;;;;;;;;11.72;100.00;98741.59;4299453;33;19957;-78
2022/11/09 09:07:02;;;;;;;;;;;;;;;11.72;100.00;98744.28;4299818;33;19949;-78
2022/11/09 09:09:28;;;;;;;;;;;;;;;11.59;100.00;98751.78;4298965;33;19932;-78
2022/11/09 09:11:54;;;;;;;;;;;;;;;11.42;100.00;98757.38;4296968;33;19971;-78
2022/11/09 09:14:21;;;;;;;;;;;;;;;11.70;100.00;98736.47;4297611;33;19936;-78
2022/11/09 09:16:47;;;;;;;;;;;;;;;11.92;100.00;98738.19;4300282;33;19968;-77
2022/11/09 09:19:13;;;;;;;;;;;;;;;12.08;100.00;98736.34;4299280;33;19944;-79
2022/11/09 09:21:40;;;;;;;;;;;;;;;12.12;100.00;98732.03;4317110;33;19940;-78
2022/11/09 09:24:06;;;;;;;;;;;;;;;12.08;100.00;98725.56;4311897;33;19940;-77
2022/11/09 09:26:32;;;;;;;;;;;;;;;12.26;100.00;98726.94;4316623;33;19965;-80
2022/11/09 09:28:58;;;;;;;;;;;;;;;12.24;100.00;98735.28;4311499;33;19979;-78
2022/11/09 09:31:25;;;;;;;;;;;;;;;12.27;100.00;98734.75;4312801;33;19943;-79
2022/11/09 09:33:53;;;;;;;;;;;;;;;12.34;100.00;98740.69;4296213;33;20063;-79
2022/11/09 09:36:20;;;;;;;;;;;;;;;12.67;100.00;98727.75;4296289;33;19942;-79
2022/11/09 09:38:50;;;;;;;;;;;;;;;12.45;100.00;98736.13;4293398;33;19962;-80
2022/11/09 09:41:27;;;;;;;;;;;;;;;12.51;100.00;98734.25;4294952;33;20352;-80
2022/11/09 09:43:56;;;;;;;;;;;;;;;12.26;100.00;98738.53;4298463;33;19937;-78
2022/11/09 09:46:31;;;;;;;;;;;;;;;12.58;100.00;98737.47;4303077;33;19950;-80
2022/11/09 09:49:00;;;;;;;;;;;;;;;12.39;100.00;98725.59;4298117;33;20330;-78
2022/11/09 09:52:02;;;;;;;;;;;;;;;12.72;100.00;98735.84;4282980;33;19982;-79
2022/11/09 09:54:38;;;;;;;;;;;;;;;12.84;100.00;98732.06;4281794;33;19964;-79
2022/11/09 09:57:11;;;;;;;;;;;;;;;13.09;100.00;98723.91;4279298;33;19976;-78
2022/11/09 09:59:41;;;;;;;;;;;;;;;12.85;100.00;98733.69;4285297;33;19952;-79
2022/11/09 10:02:19;;;;;;;;;;;;;;;13.28;100.00;98742.25;4292771;33;19952;-80
2022/11/09 10:04:46;;;;;;;;;;;;;;;12.85;100.00;98733.69;4300002;33;20232;-80
2022/11/09 10:07:16;;;;;;;;;;;;;;;13.04;100.00;98732.03;4310054;33;19935;-79
2022/11/09 10:09:51;;;;;;;;;;;;;;;13.04;100.00;98726.63;4308853;33;19958;-77
2022/11/09 10:12:50;;;;;;;;;;;;;;;13.09;100.00;98718.50;4310061;33;20652;-79
2022/11/09 10:15:19;;;;;;;;;;;;;;;13.01;100.00;98716.38;4299889;33;19942;-76
2022/11/09 10:17:53;;;;;;;;;;;;;;;13.16;100.00;98722.81;4309708;33;19952;-79
2022/11/09 10:20:22;;;;;;;;;;;;;;;13.15;100.00;98723.94;4308524;33;19940;-78
2022/11/09 10:22:58;;;;;;;;;;;;;;;13.58;100.00;98732.47;4319037;33;19940;-79
2022/11/09 10:25:36;;;;;;;;;;;;;;;13.25;100.00;98715.78;4333066;33;20694;-78
2022/11/09 10:28:07;;;;;;;;;;;;;;;13.54;100.00;98718.66;4341721;33;19940;-78
2022/11/09 10:30:33;;;;;;;;;;;;;;;13.63;100.00;98727.84;4322891;33;19945;-79
2022/11/09 10:33:09;;;;;;;;;;;;;;;13.58;100.00;98724.34;4307886;33;20044;-79
2022/11/09 10:36:04;;;;;;;;;;;;;;;13.81;100.00;98718.28;4320279;33;19961;-79
2022/11/09 10:38:35;;;;;;;;;;;;;;;13.86;100.00;98719.34;4311194;33;19940;-79
2022/11/09 10:41:31;;;;;;;;;;;;;;;13.61;100.00;98718.41;4312846;33;19936;-80
2022/11/09 10:44:17;;;;;;;;;;;;;;;13.47;100.00;98722.78;4278705;33;19940;-80
2022/11/09 10:47:04;;;;;;;;;;;;;;;13.77;100.00;98714.53;4283812;33;20270;-79
2022/11/09 10:50:18;;;;;;;;;;;;;;;14.28;100.00;98704.47;4295286;33;20005;-81
2022/11/09 10:53:07;;;;;;;;;;;;;;;14.35;100.00;98719.31;4248118;33;19941;-80
2022/11/09 10:56:11;;;;;;;;;;;;;;;14.42;100.00;98720.87;4249866;33;19956;-79
2022/11/09 10:58:56;;;;;;;;;;;;;;;14.42;100.00;98727.09;4251936;33;19939;-81
2022/11/09 11:01:41;;;;;;;;;;;;;;;14.37;100.00;98724.44;4249595;33;20356;-80
2022/11/09 11:04:26;;;;;;;;;;;;;;;14.33;100.00;98729.63;4259479;33;19981;-82
2022/11/09 11:07:14;;;;;;;;;;;;;;;14.33;100.00;98739.66;4264907;33;19954;-80
2022/11/09 11:10:10;;;;;;;;;;;;;;;14.60;100.00;98741.09;4237929;33;19942;-80
2022/11/09 11:13:00;;;;;;;;;;;;;;;14.39;100.00;98743.94;4236353;33;19998;-81
2022/11/09 11:15:45;;;;;;;;;;;;;;;14.51;100.00;98741.66;4257706;33;19976;-82
2022/11/09 11:18:33;;;;;;;;;;;;;;;14.97;100.00;98731.56;4264182;33;19938;-80
2022/11/09 11:21:18;;;;;;;;;;;;;;;14.19;100.00;98734.03;4264829;33;19941;-79
2022/11/09 11:24:12;;;;;;;;;;;;;;;14.28;100.00;98742.38;4286443;33;20069;-81
2022/11/09 11:27:03;;;;;;;;;;;;;;;14.21;100.00;98744.59;4304662;33;19954;-79
2022/11/09 11:29:41;;;;;;;;;;;;;;;14.20;100.00;98738.38;4292226;33;19970;-80
2022/11/09 11:32:26;;;;;;;;;;;;;;;14.27;100.00;98735.34;4294769;33;19937;-81
2022/11/09 11:35:13;;;;;;;;;;;;;;;13.92;100.00;98750.72;4288761;33;19963;-79
2022/11/09 11:38:16;;;;;;;;;;;;;;;14.13;100.00;98743.28;4290249;33;19940;-80
2022/11/09 11:41:01;;;;;;;;;;;;;;;14.11;100.00;98743.56;4281046;33;19941;-81
2022/11/09 11:44:21;;;;;;;;;;;;;;;14.35;100.00;98732.84;4293023;33;19958;-79
2022/11/09 11:47:05;;;;;;;;;;;;;;;14.21;100.00;98739.19;4272503;33;19933;-82
2022/11/09 11:49:57;;;;;;;;;;;;;;;14.11;100.00;98732.72;4321778;33;20324;-80
2022/11/09 11:52:50;;;;;;;;;;;;;;;14.17;100.00;98737.03;4323794;33;20052;-81
2022/11/09 11:55:45;;;;;;;;;;;;;;;14.22;100.00;98738.09;4293814;33;19964;-80
2022/11/09 11:58:48;;;;;;;;;;;;;;;14.31;100.00;98730.97;4309294;33;19936;-81
2022/11/09 12:01:32;;;;;;;;;;;;;;;13.99;100.00;98729.56;4306919;33;19948;-81
2022/11/09 12:04:27;;;;;;;;;;;;;;;14.17;100.00;98730.81;4306683;33;19936;-80
2022/11/09 12:07:18;;;;;;;;;;;;;;;14.35;100.00;98737.47;4314931;33;20196;-81
2022/11/09 12:10:10;;;;;;;;;;;;;;;14.22;100.00;98732.69;4318108;33;19958;-79
2022/11/09 12:13:01;;;;;;;;;;;;;;;14.02;100.00;98734.41;4296687;33;20322;-83
2022/11/09 12:15:54;;;;;;;;;;;;;;;14.26;100.00;98734.53;4292111;33;19950;-81
2022/11/09 12:18:51;;;;;;;;;;;;;;;14.14;100.00;98729.47;4294754;33;19950;-79
2022/11/09 12:21:50;;;;;;;;;;;;;;;14.16;100.00;98735.41;4293559;33;19998;-81
2022/11/09 12:24:55;;;;;;;;;;;;;;;14.06;100.00;98727.34;4294701;33;19975;-79
2022/11/09 12:27:50;;;;;;;;;;;;;;;14.21;100.00;98736.47;4279998;33;20412;-82
2022/11/09 12:30:51;;;;;;;;;;;;;;;13.84;100.00;98732.34;4280244;33;19987;-82
2022/11/09 12:33:54;;;;;;;;;;;;;;;14.14;100.00;98731.38;4281844;33;20059;-82
2022/11/09 12:36:45;;;;;;;;;;;;;;;14.11;100.00;98735.44;4279524;33;19953;-79
2022/11/09 12:39:42;;;;;;;;;;;;;;;13.76;100.00;98726.41;4282752;33;19964;-81
2022/11/09 12:42:45;;;;;;;;;;;;;;;13.73;100.00;98726.97;4271385;33;19956;-80
2022/11/09 12:45:34;;;;;;;;;;;;;;;13.67;100.00;98711.84;4321359;33;19946;-80
2022/11/09 12:48:25;;;;;;;;;;;;;;;13.79;100.00;98709.62;4333295;33;19957;-82
2022/11/09 12:51:10;;;;;;;;;;;;;;;13.73;100.00;98699.91;4341201;33;19973;-81
2022/11/09 12:53:56;;;;;;;;;;;;;;;13.98;100.00;98711.72;4339825;33;19935;-81
2022/11/09 12:56:49;;;;;;;;;;;;;;;14.06;100.00;98713.81;4338501;33;19957;-82
2022/11/09 12:59:35;;;;;;;;;;;;;;;14.30;100.00;98713.13;4322733;33;19935;-76
2022/11/09 13:02:23;;;;;;;;;;;;;;;14.28;100.00;98709.88;4326543;33;20055;-83
2022/11/09 13:05:27;;;;;;;;;;;;;;;14.23;100.00;98712.63;4323643;33;19932;-79
2022/11/09 13:08:28;;;;;;;;;;;;;;;14.04;100.00;98716.00;4336977;33;19943;-83
2022/11/09 13:11:16;;;;;;;;;;;;;;;14.32;100.00;98721.78;4311999;33;19932;-84